Nearby METAR Reports

 

EGXV - Leconfield (aut), United Kingdom
Distance from station: СЗ 6mi, 9km
Актуализирано: Tue, 16-Jan-2018 10:50am GMT
Тихо и ясно
Тихо и ясно
 Вятър от ЗЮЗ
Вятър: ЗЮЗ 21 mph , 33 km/h
Температура: 4°C
Wind Chill: -2°C
Точка на оросяване: 0°C
Влажност: 75%
Барометър: 988 hPa
Clouds: Тихо и ясно
Visibility: 6 miles , 10 km
2018/01/16 10:50 EGXV 161050Z AUTO 25018KT 9999 NCD 04/00 Q0988
EGNJ - Humberside, United Kingdom
Distance from station: Ю 16mi, 26km
Актуализирано: Tue, 16-Jan-2018 10:50am GMT
Частична облачност
Частична облачност
 Вятър от ЗЮЗ
Вятър: ЗЮЗ 22 mph , 35 km/h
Температура: 4°C
Wind Chill: -2°C
Точка на оросяване: 1°C
Влажност: 81%
Барометър: 990 hPa
Clouds: Частична облачност
Visibility: 6 miles , 10 km
Cloud details: Few Clouds 366 m
Частична облачност 610 m
2018/01/16 10:50 EGNJ 161050Z 24019KT 9999 FEW012 SCT020 04/01 Q0990
EGXS - Donna Nook Raf, United Kingdom
Distance from station: ЮИ 30mi, 49km
Актуализирано: Tue, 16-Jan-2018 10:50am GMT
Тихо и ясно
Тихо и ясно
 Вятър от ЗЮЗ
Вятър: ЗЮЗ 23 mph , 37 km/h
Температура: 3°C
Wind Chill: -3°C
Точка на оросяване: 1°C
Влажност: 87%
Барометър: 989 hPa
Clouds: Тихо и ясно
Visibility: 6 miles , 10 km
2018/01/16 10:50 EGXS 161050Z AUTO 24020KT 9999 // NCD 03/01 Q0989
 
EGCN - Doncaster Sheffi, United Kingdom
Distance from station: ЮЗ 35mi, 56km
Актуализирано: Tue, 16-Jan-2018 10:50am GMT
Nearby showers, Частична облачност
Nearby showers, Частична облачност
 Вятър от ЗЮЗ
Вятър: ЗЮЗ 18 mph , 30 km/h
Температура: 4°C
Wind Chill: -1°C
Точка на оросяване: 2°C
Влажност: 87%
Барометър: 991 hPa
Метео сводка: Nearby Showers
Clouds: Частична облачност
Visibility: 6 miles , 10 km
Cloud details: Few Clouds 213 m
Частична облачност 549 m
Частична облачност 945 m
2018/01/16 10:50 EGCN 161050Z 25016KT 9999 VCSH FEW007 SCT018 SCT031CB 04/02 Q0991 RERA
EGXP - Scampton Raf, United Kingdom
Distance from station: ЮЮЗ 36mi, 58km
Актуализирано: Tue, 16-Jan-2018 10:50am GMT
Преобладаваща облачност
Преобладаваща облачност
 Вятър от ЗЮЗ
Вятър: ЗЮЗ 16 mph , 26 km/h
Температура: 4°C
Wind Chill: -1°C
Точка на оросяване: 2°C
Влажност: 87%
Барометър: 991 hPa
Clouds: Преобладаваща облачност
Visibility: 6 miles , 10 km
Cloud details: Частична облачност 610 m
Преобладаваща облачност 1341 m
2018/01/16 10:50 EGXP 161050Z 24014KT 9999 SCT020 BKN044 04/02 Q0991 WHT
EGXU - Linton-On-Ouse R, United Kingdom
Distance from station: ЗСЗ 40mi, 65km
Актуализирано: Tue, 16-Jan-2018 10:50am GMT
Few Clouds
Few Clouds
 Вятър от З
Вятър: З 17 mph , 28 km/h
Температура: 4°C
Wind Chill: -1°C
Точка на оросяване: 0°C
Влажност: 75%
Барометър: 988 hPa
Clouds: Few Clouds
Visibility: 6 miles , 10 km
Cloud details: Few Clouds 457 m
2018/01/16 10:50 EGXU 161050Z 27015KT 9999 FEW015CB 04/M00 Q0988 BLU TEMPO 27020G30KT 3000 -SHSN SCT014CB YLO1
 
EGXW - Waddington Raf, United Kingdom
Distance from station: Ю 43mi, 70km
Актуализирано: Tue, 16-Jan-2018 10:50am GMT
Few Clouds
Few Clouds
 Вятър от З
Вятър: З 15 mph , 24 km/h
Температура: 4°C
Wind Chill: -1°C
Точка на оросяване: 0°C
Влажност: 75%
Барометър: 991 hPa
Clouds: Few Clouds
Visibility: 6 miles , 10 km
Cloud details: Few Clouds 457 m
2018/01/16 10:50 EGXW 161050Z 26013KT 9999 FEW015CB 04/00 Q0991 BLU TEMPO 2000 -SHSN SCT007 BKN015CB YLO2
EGXC - Coningsby Raf, United Kingdom
Distance from station: Ю 49mi, 79km
Актуализирано: Tue, 16-Jan-2018 10:50am GMT
Few Clouds
Few Clouds
 Вятър от З
Вятър: З 21 mph , 33 km/h, Порив: 32 mph , 52 km/h
Температура: 5°C
Wind Chill: 0°C
Точка на оросяване: 0°C
Влажност: 70%
Барометър: 991 hPa
Clouds: Few Clouds
Visibility: 6 miles , 10 km
Cloud details: Few Clouds 914 m
2018/01/16 10:50 EGXC 161050Z 26018G28KT 9999 FEW030 05/M00 Q0991 BLU NOSIG
EGXD - Dishforth Raf, United Kingdom
Distance from station: ЗСЗ 49mi, 79km
Актуализирано: Mon, 06-Jun-2016 10:50am BST
NOT Current
Тихо и ясно
Тихо и ясно
 Вятър от ЮЮИ
Вятър: ЮЮИ 5 mph , 7 km/h
Температура: 18°C
Точка на оросяване: 11°C
Влажност: 64%
Барометър: 1023 hPa
Clouds: Тихо и ясно
Visibility: 6 miles , 10 km
2016/06/06 09:50 EGXD 060950Z AUTO 16004KT 9999 // NCD 18/11 Q1023
 
EGXZ - Topcliffe Raf, United Kingdom
Distance from station: ЗСЗ 50mi, 81km
Актуализирано: Tue, 16-Jan-2018 10:50am GMT
Тихо и ясно
Тихо и ясно
 Вятър от З
Вятър: З 20 mph , 31 km/h
Температура: 5°C
Wind Chill: 0°C
Точка на оросяване: -1°C
Влажност: 66%
Барометър: 988 hPa
Метео сводка: Тихо и ясно
Visibility: greater than 7 miles , 10 km
2018/01/16 10:50 EGXZ 161050Z 26017KT CAVOK 05/M01 Q0988 BLU